Time;durP1;ratioP1;P1;durP2;ratioP2;P2;SDS_P1;SDS_P2;PMS_P1;PMS_P2;Temp;Humidity;BMP_temperature;BMP_pressure;BME280_temperature;BME280_humidity;BME280_pressure;Samples;Min_cycle;Max_cycle;Signal;HPM_P1;HPM_P2
2022/03/15 00:00:51;;;;;;;8.77;3.35;;;8.00;99.90;;;;;;6251364;22;20020;-90
2022/03/15 00:03:18;;;;;;;7.38;4.32;;;8.00;99.90;;;;;;6277395;22;20045;-90
2022/03/15 00:05:45;;;;;;;11.82;4.15;;;8.00;99.90;;;;;;6250570;22;20020;-90
2022/03/15 00:08:12;;;;;;;6.45;3.45;;;8.00;99.90;;;;;;6250522;22;20091;-90
2022/03/15 00:10:39;;;;;;;8.45;3.78;;;8.00;99.90;;;;;;6250510;22;20128;-89
2022/03/15 00:13:07;;;;;;;7.78;3.47;;;8.00;99.90;;;;;;6275780;22;20396;-90
2022/03/15 00:15:36;;;;;;;6.82;3.00;;;8.00;99.90;;;;;;6277345;22;20040;-89
2022/03/15 00:18:03;;;;;;;6.78;3.80;;;8.00;99.90;;;;;;6250421;22;20016;-90
2022/03/15 00:20:30;;;;;;;7.15;3.22;;;8.00;99.90;;;;;;6249942;22;20103;-90
2022/03/15 00:22:59;;;;;;;6.45;3.38;;;8.00;99.90;;;;;;6250522;22;20023;-90
2022/03/15 00:25:26;;;;;;;6.00;3.47;;;7.90;99.90;;;;;;6225272;22;20015;-90
2022/03/15 00:27:55;;;;;;;5.88;3.08;;;8.00;99.90;;;;;;6276061;22;20091;-90
2022/03/15 00:30:23;;;;;;;5.90;3.30;;;7.90;99.90;;;;;;6225868;22;20022;-90
2022/03/15 00:32:51;;;;;;;6.47;3.42;;;8.00;99.90;;;;;;6250019;22;20436;-90
2022/03/15 00:35:19;;;;;;;7.63;3.08;;;7.90;99.90;;;;;;6225196;22;20097;-91
2022/03/15 00:37:49;;;;;;;5.70;2.90;;;7.90;99.90;;;;;;6275596;22;20015;-90
2022/03/15 00:40:18;;;;;;;7.50;3.45;;;7.90;99.90;;;;;;6250743;22;20011;-89
2022/03/15 00:42:53;;;;;;;7.15;3.67;;;7.90;99.90;;;;;;6275433;22;20023;-90
2022/03/15 00:45:30;;;;;;;10.25;3.72;;;7.90;99.90;;;;;;6249974;22;20019;-90
2022/03/15 00:48:00;;;;;;;8.65;3.33;;;7.90;99.90;;;;;;6250332;22;20019;-90
2022/03/15 00:50:32;;;;;;;5.35;2.92;;;7.90;99.90;;;;;;6251065;22;20118;-90
2022/03/15 00:53:00;;;;;;;8.25;3.85;;;7.90;99.90;;;;;;6249654;22;20410;-89
2022/03/15 00:55:27;;;;;;;6.93;2.53;;;8.00;99.90;;;;;;6249847;22;20106;-89
2022/03/15 00:57:54;;;;;;;9.13;2.88;;;8.00;99.90;;;;;;6250274;22;20046;-89
2022/03/15 01:00:22;;;;;;;6.43;3.25;;;8.00;99.90;;;;;;6249804;22;20023;-89
2022/03/15 01:02:49;;;;;;;6.13;2.95;;;7.90;99.90;;;;;;6249623;22;20027;-90
2022/03/15 01:05:16;;;;;;;7.35;3.58;;;7.90;99.90;;;;;;6224755;22;20020;-89
2022/03/15 01:07:44;;;;;;;4.15;2.40;;;7.90;99.90;;;;;;6249987;22;20446;-90
2022/03/15 01:10:13;;;;;;;7.50;3.67;;;7.90;99.90;;;;;;6250105;22;20016;-90
2022/03/15 01:12:40;;;;;;;8.45;3.45;;;7.90;99.90;;;;;;6250366;22;20368;-90
2022/03/15 01:15:08;;;;;;;6.30;2.97;;;7.90;99.90;;;;;;6225001;22;20110;-90
2022/03/15 01:17:35;;;;;;;6.32;3.13;;;7.90;99.90;;;;;;6249789;22;20103;-91
2022/03/15 01:20:06;;;;;;;7.78;2.55;;;7.90;99.90;;;;;;6250271;22;20019;-90
2022/03/15 01:22:36;;;;;;;6.35;2.47;;;7.90;99.90;;;;;;6249610;22;20095;-90
2022/03/15 01:25:06;;;;;;;6.22;3.00;;;7.90;99.90;;;;;;6249888;22;20019;-90
2022/03/15 01:27:35;;;;;;;5.93;2.42;;;7.90;99.90;;;;;;6249890;22;20046;-89
2022/03/15 01:30:05;;;;;;;7.15;2.92;;;7.90;99.90;;;;;;6250065;22;20019;-89
2022/03/15 01:32:32;;;;;;;5.40;1.95;;;7.90;99.90;;;;;;6275637;22;20019;-90
2022/03/15 01:34:59;;;;;;;4.07;2.55;;;7.90;99.90;;;;;;6249809;22;20324;-90
2022/03/15 01:37:26;;;;;;;5.45;3.13;;;7.90;99.90;;;;;;6249880;22;20390;-89
2022/03/15 01:39:56;;;;;;;5.63;2.97;;;7.90;99.90;;;;;;6249828;22;20015;-89
2022/03/15 01:42:23;;;;;;;6.20;2.55;;;7.90;99.90;;;;;;6249285;22;20406;-89
2022/03/15 01:44:50;;;;;;;8.85;2.45;;;7.90;99.90;;;;;;6249793;22;20026;-90
2022/03/15 01:47:17;;;;;;;8.10;2.33;;;7.80;99.90;;;;;;6275203;22;20098;-90
2022/03/15 01:49:44;;;;;;;5.68;3.08;;;7.90;99.90;;;;;;6249679;22;20466;-90
2022/03/15 01:52:15;;;;;;;9.90;2.78;;;7.80;99.90;;;;;;6199599;22;20042;-89
2022/03/15 01:54:43;;;;;;;7.25;3.10;;;7.80;99.90;;;;;;6250814;22;20015;-89
2022/03/15 01:57:12;;;;;;;6.35;2.50;;;7.80;99.90;;;;;;6250493;22;20383;-90
2022/03/15 01:59:40;;;;;;;5.45;2.90;;;7.80;99.90;;;;;;6249799;22;20023;-90
2022/03/15 02:02:08;;;;;;;3.45;2.05;;;7.80;99.90;;;;;;6249527;22;20024;-89
2022/03/15 02:04:40;;;;;;;8.95;3.13;;;7.80;99.90;;;;;;6224557;22;20325;-90
2022/03/15 02:07:16;;;;;;;9.48;3.35;;;7.80;99.90;;;;;;6276476;22;20062;-89
2022/03/15 02:09:43;;;;;;;4.32;2.70;;;7.80;99.90;;;;;;6249581;22;20107;-89
2022/03/15 02:12:10;;;;;;;9.25;2.95;;;7.80;99.90;;;;;;6249352;22;20102;-89
2022/03/15 02:14:37;;;;;;;7.35;2.45;;;7.80;99.90;;;;;;6224640;22;20115;-90
2022/03/15 02:17:05;;;;;;;7.25;2.90;;;7.80;99.90;;;;;;6249510;22;20028;-90
2022/03/15 02:19:36;;;;;;;8.68;2.72;;;7.80;99.90;;;;;;6276763;22;20019;-89
2022/03/15 02:22:03;;;;;;;6.72;3.35;;;7.80;99.90;;;;;;6249454;22;20434;-89
2022/03/15 02:24:30;;;;;;;10.65;4.45;;;7.80;99.90;;;;;;6199833;22;20024;-90
2022/03/15 02:26:57;;;;;;;9.07;3.80;;;7.70;99.90;;;;;;6249416;22;20200;-89
2022/03/15 02:29:24;;;;;;;6.05;3.33;;;7.70;99.90;;;;;;6249657;22;20049;-89
2022/03/15 02:31:51;;;;;;;5.55;2.58;;;7.70;99.90;;;;;;6249408;22;20016;-89
2022/03/15 02:34:22;;;;;;;6.00;2.50;;;7.70;99.90;;;;;;6249351;22;20020;-89
2022/03/15 02:36:48;;;;;;;4.25;2.53;;;7.70;99.90;;;;;;6249276;22;20023;-90
2022/03/15 02:39:16;;;;;;;9.55;3.65;;;7.70;99.90;;;;;;6249667;22;20106;-90
2022/03/15 02:41:43;;;;;;;7.60;3.40;;;7.70;99.90;;;;;;6275010;22;20350;-90
2022/03/15 02:44:11;;;;;;;4.38;3.17;;;7.70;99.90;;;;;;6250952;22;20020;-90
2022/03/15 02:46:39;;;;;;;6.57;3.58;;;7.60;99.90;;;;;;6251622;22;20024;-90
2022/03/15 02:49:07;;;;;;;6.80;3.42;;;7.60;99.90;;;;;;6226477;22;20099;-89
2022/03/15 02:51:34;;;;;;;7.63;4.20;;;7.60;99.90;;;;;;6251372;22;20402;-89
2022/03/15 02:54:08;;;;;;;4.93;3.13;;;7.60;99.90;;;;;;6251244;22;20135;-89
2022/03/15 02:56:42;;;;;;;10.27;3.90;;;7.60;99.90;;;;;;6251431;22;20446;-90
2022/03/15 02:59:10;;;;;;;5.35;2.95;;;7.60;99.90;;;;;;6251778;22;20043;-89
2022/03/15 03:01:37;;;;;;;8.05;3.85;;;7.60;99.90;;;;;;6250801;22;20026;-90
2022/03/15 03:04:04;;;;;;;4.38;2.88;;;7.60;99.90;;;;;;6251173;22;20062;-89
2022/03/15 03:06:31;;;;;;;12.95;4.18;;;7.60;99.90;;;;;;6251003;22;20111;-89
2022/03/15 03:08:58;;;;;;;10.20;4.45;;;7.50;99.90;;;;;;6251672;22;20023;-90
2022/03/15 03:11:25;;;;;;;6.55;3.20;;;7.60;99.90;;;;;;6278136;22;20039;-90
2022/03/15 03:14:00;;;;;;;8.18;3.13;;;7.50;99.90;;;;;;6251571;22;20016;-89
2022/03/15 03:16:28;;;;;;;5.72;3.10;;;7.50;99.90;;;;;;6250921;22;20027;-90
2022/03/15 03:18:58;;;;;;;10.98;3.72;;;7.50;99.90;;;;;;6278301;22;20058;-89
2022/03/15 03:21:28;;;;;;;5.38;3.20;;;7.50;99.90;;;;;;6225595;22;20067;-89
2022/03/15 03:23:56;;;;;;;5.18;3.70;;;7.40;99.90;;;;;;6225517;22;20051;-90
2022/03/15 03:26:24;;;;;;;7.15;3.20;;;7.50;99.90;;;;;;6250925;22;20051;-89
2022/03/15 03:28:51;;;;;;;9.00;3.90;;;7.40;99.90;;;;;;6225697;22;20011;-89
2022/03/15 03:31:19;;;;;;;8.52;4.28;;;7.40;99.90;;;;;;6225829;22;20027;-89
2022/03/15 03:33:46;;;;;;;7.65;3.45;;;7.40;99.90;;;;;;6250598;22;20024;-90
2022/03/15 03:36:13;;;;;;;4.47;2.97;;;7.40;99.90;;;;;;6250617;22;20110;-89
2022/03/15 03:38:41;;;;;;;7.72;3.80;;;7.40;99.90;;;;;;6250872;22;20016;-89
2022/03/15 03:41:09;;;;;;;6.90;4.07;;;7.40;99.90;;;;;;6277639;22;20414;-89
2022/03/15 03:43:35;;;;;;;5.75;3.90;;;7.40;99.90;;;;;;6225197;22;20070;-89
2022/03/15 03:46:02;;;;;;;6.82;3.85;;;7.40;99.90;;;;;;6250732;22;20091;-89
2022/03/15 03:48:30;;;;;;;7.53;4.28;;;7.40;99.90;;;;;;6250873;22;20094;-90
2022/03/15 03:50:58;;;;;;;6.00;3.20;;;7.30;99.90;;;;;;6250664;22;20102;-90
2022/03/15 03:53:25;;;;;;;5.53;3.88;;;7.30;99.90;;;;;;6225603;22;20413;-90
2022/03/15 03:55:52;;;;;;;8.20;3.22;;;7.30;99.90;;;;;;6250514;22;20474;-90
2022/03/15 03:58:19;;;;;;;8.85;3.60;;;7.30;99.90;;;;;;6250434;22;20024;-89
2022/03/15 04:00:46;;;;;;;6.05;3.28;;;7.30;99.90;;;;;;6250332;22;20078;-89
2022/03/15 04:03:17;;;;;;;8.80;3.30;;;7.30;99.90;;;;;;6250058;22;20448;-90
2022/03/15 04:05:46;;;;;;;5.95;3.33;;;7.30;99.90;;;;;;6250482;22;20020;-90
2022/03/15 04:08:14;;;;;;;7.57;3.70;;;7.30;99.90;;;;;;6250360;22;20028;-90
2022/03/15 04:10:41;;;;;;;7.80;3.10;;;7.30;99.90;;;;;;6250246;22;20022;-90
2022/03/15 04:13:08;;;;;;;9.82;3.30;;;7.30;99.90;;;;;;6277263;22;20016;-89
2022/03/15 04:15:35;;;;;;;7.03;3.80;;;7.30;99.90;;;;;;6225128;22;20418;-89
2022/03/15 04:18:03;;;;;;;4.38;3.13;;;7.20;99.90;;;;;;6250294;22;20016;-89
2022/03/15 04:20:32;;;;;;;7.78;3.85;;;7.20;99.90;;;;;;6225095;22;20016;-90
2022/03/15 04:22:59;;;;;;;9.10;2.95;;;7.30;99.90;;;;;;6277054;22;20050;-90
2022/03/15 04:25:26;;;;;;;5.38;2.88;;;7.20;99.90;;;;;;6250603;22;20095;-90
2022/03/15 04:27:56;;;;;;;9.90;3.30;;;7.20;99.90;;;;;;6277723;22;20034;-89
2022/03/15 04:30:24;;;;;;;5.45;2.90;;;7.20;99.90;;;;;;6250378;22;20046;-89
2022/03/15 04:32:51;;;;;;;6.93;4.22;;;7.20;99.90;;;;;;6250652;22;20106;-90
2022/03/15 04:35:18;;;;;;;6.38;2.95;;;7.20;99.90;;;;;;6277391;22;20087;-89
2022/03/15 04:37:45;;;;;;;10.25;3.05;;;7.20;99.90;;;;;;6225078;22;20043;-90
2022/03/15 04:40:12;;;;;;;8.50;2.78;;;7.20;99.90;;;;;;6225229;22;20111;-89
2022/03/15 04:42:41;;;;;;;6.95;3.53;;;7.20;99.90;;;;;;6225484;22;20030;-90
2022/03/15 04:45:08;;;;;;;7.53;3.53;;;7.20;99.90;;;;;;6250584;22;20020;-90
2022/03/15 04:47:37;;;;;;;8.68;3.08;;;7.10;99.90;;;;;;6250015;22;20016;-89
2022/03/15 04:50:05;;;;;;;4.82;2.83;;;7.20;99.90;;;;;;6250273;22;20023;-90
2022/03/15 04:52:33;;;;;;;7.35;4.40;;;7.10;99.90;;;;;;6276440;22;20020;-90
2022/03/15 04:55:01;;;;;;;8.80;3.03;;;7.20;99.90;;;;;;6250711;22;20047;-90
2022/03/15 04:57:28;;;;;;;5.50;3.65;;;7.20;99.90;;;;;;6250540;22;20680;-90
2022/03/15 04:59:55;;;;;;;8.35;2.85;;;7.10;99.90;;;;;;6276985;22;20054;-90
2022/03/15 05:02:24;;;;;;;8.23;3.20;;;7.10;99.90;;;;;;6249551;22;20451;-90
2022/03/15 05:04:51;;;;;;;6.47;3.00;;;7.10;99.90;;;;;;6249738;22;20074;-90
2022/03/15 05:07:18;;;;;;;10.30;2.83;;;7.10;99.90;;;;;;6224424;22;20411;-89
2022/03/15 05:12:32;;;;;;;5.03;2.72;;;7.10;99.90;;;;;;6249587;22;20065;-89
2022/03/15 05:14:59;;;;;;;8.75;2.88;;;7.10;99.90;;;;;;6249868;22;20128;-89
2022/03/15 05:17:26;;;;;;;8.20;3.13;;;7.10;99.90;;;;;;6250036;22;20026;-90
2022/03/15 05:19:53;;;;;;;5.30;3.60;;;7.00;99.90;;;;;;6249577;22;20049;-90
2022/03/15 05:22:21;;;;;;;6.32;2.67;;;7.00;99.90;;;;;;6249464;22;20055;-89
2022/03/15 05:24:48;;;;;;;6.20;2.70;;;7.00;99.90;;;;;;6249732;22;20023;-90
2022/03/15 05:27:16;;;;;;;7.22;3.28;;;7.00;99.90;;;;;;6224733;22;20019;-90
2022/03/15 05:29:43;;;;;;;4.30;2.45;;;7.00;99.90;;;;;;6249954;22;20043;-90
2022/03/15 05:32:10;;;;;;;5.05;3.00;;;7.00;99.90;;;;;;6249316;22;20513;-89
2022/03/15 05:34:37;;;;;;;7.22;2.83;;;7.00;99.90;;;;;;6249436;22;20466;-89
2022/03/15 05:37:04;;;;;;;5.13;2.72;;;7.00;99.90;;;;;;6250116;22;20023;-90
2022/03/15 05:39:32;;;;;;;6.70;3.03;;;7.00;99.90;;;;;;6249862;22;20115;-89
2022/03/15 05:41:59;;;;;;;7.45;3.33;;;7.00;99.90;;;;;;6249494;22;20472;-89
2022/03/15 05:44:26;;;;;;;4.60;2.47;;;7.00;99.90;;;;;;6250058;22;20019;-90
2022/03/15 05:46:54;;;;;;;4.68;2.28;;;7.00;99.90;;;;;;6250353;22;20044;-89
2022/03/15 05:49:21;;;;;;;4.13;2.30;;;7.00;99.90;;;;;;6275618;22;20043;-90
2022/03/15 05:51:49;;;;;;;6.18;2.28;;;7.00;99.90;;;;;;6249909;22;20015;-89
2022/03/15 05:54:16;;;;;;;3.90;2.58;;;7.00;99.90;;;;;;6249474;22;20328;-89
2022/03/15 05:56:44;;;;;;;6.95;2.53;;;7.00;99.90;;;;;;6249622;22;20431;-89
2022/03/15 05:59:10;;;;;;;6.30;2.78;;;7.00;99.90;;;;;;6224416;22;20390;-90
2022/03/15 06:01:37;;;;;;;5.97;2.67;;;7.00;99.90;;;;;;6224340;22;20020;-90
2022/03/15 06:04:05;;;;;;;6.70;2.45;;;7.00;99.90;;;;;;6249430;22;20020;-89
2022/03/15 06:06:33;;;;;;;6.05;2.17;;;7.00;99.90;;;;;;6246944;22;20054;-90
2022/03/15 06:09:01;;;;;;;5.90;2.70;;;7.00;99.90;;;;;;6272093;22;20018;-90
2022/03/15 06:11:28;;;;;;;8.02;2.40;;;7.00;99.90;;;;;;6249128;22;20023;-89
2022/03/15 06:13:55;;;;;;;5.03;2.42;;;6.90;99.90;;;;;;6276423;22;20090;-89
2022/03/15 06:16:22;;;;;;;5.68;2.72;;;6.90;99.90;;;;;;6276731;22;20020;-90
2022/03/15 06:18:50;;;;;;;6.10;3.00;;;6.90;99.90;;;;;;6251453;22;20095;-89
2022/03/15 06:21:18;;;;;;;4.88;3.00;;;6.90;99.90;;;;;;6251170;22;20127;-89
2022/03/15 06:23:45;;;;;;;7.15;3.13;;;6.90;99.90;;;;;;6277123;22;20024;-90
2022/03/15 06:26:32;;;;;;;9.30;2.30;;;6.90;99.90;;;;;;6256628;22;20034;-90
2022/03/15 06:28:59;;;;;;;6.32;2.72;;;6.90;99.90;;;;;;6251470;22;20050;-90
2022/03/15 06:31:28;;;;;;;6.55;2.33;;;6.90;99.90;;;;;;6226126;22;20026;-89
2022/03/15 06:33:56;;;;;;;5.82;2.42;;;6.90;99.90;;;;;;6278145;22;20016;-89
2022/03/15 06:36:22;;;;;;;4.75;2.85;;;6.90;99.90;;;;;;6278381;22;20019;-88
2022/03/15 06:38:49;;;;;;;9.20;2.92;;;6.90;99.90;;;;;;6251448;22;20023;-90
2022/03/15 06:41:17;;;;;;;4.72;2.53;;;6.90;99.90;;;;;;6278390;22;20383;-92
2022/03/15 06:43:43;;;;;;;5.80;3.22;;;6.90;99.90;;;;;;6226208;22;20102;-90
2022/03/15 06:46:10;;;;;;;8.52;2.80;;;6.90;99.90;;;;;;6251375;22;20074;-91
2022/03/15 06:48:38;;;;;;;6.57;2.42;;;6.90;99.90;;;;;;6252160;22;20020;-91
2022/03/15 06:51:05;;;;;;;6.63;3.42;;;6.90;99.90;;;;;;6278316;22;20018;-91
2022/03/15 06:53:32;;;;;;;7.03;2.42;;;6.90;99.90;;;;;;6251309;22;20085;-92
2022/03/15 06:56:01;;;;;;;4.68;2.50;;;6.90;99.90;;;;;;6251700;22;20027;-89
2022/03/15 06:58:31;;;;;;;7.50;3.05;;;6.90;99.90;;;;;;6276772;22;20057;-90
2022/03/15 07:00:58;;;;;;;15.68;4.40;;;6.90;99.90;;;;;;6252500;22;20351;-92
2022/03/15 07:03:28;;;;;;;7.60;2.80;;;7.00;99.90;;;;;;6254067;22;20020;-93
2022/03/15 07:05:55;;;;;;;14.02;2.70;;;6.90;99.90;;;;;;6280398;22;20040;-92
2022/03/15 07:08:22;;;;;;;4.13;2.53;;;7.00;99.90;;;;;;6252058;22;20023;-93
2022/03/15 07:10:49;;;;;;;9.82;2.78;;;7.00;99.90;;;;;;6226392;22;20087;-92
2022/03/15 07:13:16;;;;;;;5.43;2.03;;;7.00;99.90;;;;;;6250763;22;20078;-92
2022/03/15 07:15:43;;;;;;;6.50;2.80;;;7.00;99.90;;;;;;6278407;22;20399;-91
2022/03/15 07:18:10;;;;;;;6.15;3.17;;;7.00;99.90;;;;;;6251469;22;20539;-91
2022/03/15 07:20:37;;;;;;;7.13;4.43;;;7.00;99.90;;;;;;6276812;22;20024;-92
2022/03/15 07:23:04;;;;;;;8.88;4.63;;;7.00;99.90;;;;;;6251195;22;20121;-92
2022/03/15 07:25:31;;;;;;;4.13;2.20;;;7.00;99.90;;;;;;6251335;22;20451;-92
2022/03/15 07:27:58;;;;;;;7.57;2.83;;;7.00;99.90;;;;;;6251222;22;20046;-91
2022/03/15 07:30:26;;;;;;;7.03;2.90;;;7.10;99.90;;;;;;6253102;22;20020;-91
2022/03/15 07:32:53;;;;;;;13.50;5.03;;;7.00;99.90;;;;;;6252402;22;20042;-91
2022/03/15 07:35:20;;;;;;;6.75;3.70;;;7.10;99.90;;;;;;6256012;22;20124;-92
2022/03/15 07:37:55;;;;;;;6.40;3.55;;;7.10;99.90;;;;;;6253009;22;20027;-92
2022/03/15 07:40:23;;;;;;;6.13;3.00;;;7.10;99.90;;;;;;6226281;22;20024;-90
2022/03/15 07:42:52;;;;;;;8.48;4.03;;;7.10;99.90;;;;;;6250860;22;20336;-91
2022/03/15 07:45:19;;;;;;;9.35;4.22;;;7.10;99.90;;;;;;6278128;22;20369;-92
2022/03/15 07:47:47;;;;;;;10.77;4.40;;;7.10;99.90;;;;;;6277580;22;20039;-90
2022/03/15 07:50:15;;;;;;;11.10;3.53;;;7.10;99.90;;;;;;6250390;22;20016;-91
2022/03/15 07:52:46;;;;;;;6.68;2.88;;;7.20;99.90;;;;;;6276243;22;20043;-91
2022/03/15 07:55:13;;;;;;;18.45;6.00;;;7.20;99.90;;;;;;6250945;22;20022;-90
2022/03/15 07:57:40;;;;;;;5.25;2.53;;;7.20;99.90;;;;;;6250753;22;20106;-91
2022/03/15 08:00:33;;;;;;;8.40;3.92;;;7.20;99.90;;;;;;6251956;22;20074;-94
2022/03/15 08:07:38;;;;;;;16.98;6.65;;;7.30;99.90;;;;;;6273915;22;20022;-94
2022/03/15 08:10:10;;;;;;;15.00;7.50;;;7.30;99.90;;;;;;6251222;22;20020;-92
2022/03/15 08:12:39;;;;;;;79.05;48.00;;;7.30;99.90;;;;;;6279883;22;20034;-88
2022/03/15 08:15:07;;;;;;;35.60;28.10;;;7.40;99.90;;;;;;6250707;22;20066;-89
2022/03/15 08:17:35;;;;;;;21.35;9.00;;;7.40;99.90;;;;;;6277649;22;20031;-89
2022/03/15 08:20:04;;;;;;;19.58;7.70;;;7.50;99.90;;;;;;6250341;22;20028;-89
2022/03/15 08:22:31;;;;;;;16.33;8.82;;;7.50;99.90;;;;;;6275714;22;20097;-88
2022/03/15 08:25:00;;;;;;;18.55;9.70;;;7.60;99.90;;;;;;6249927;22;20020;-89
2022/03/15 08:27:26;;;;;;;18.98;9.60;;;7.60;99.90;;;;;;6250262;22;20102;-90
2022/03/15 08:29:54;;;;;;;21.30;9.25;;;7.60;99.90;;;;;;6249770;22;20044;-89
2022/03/15 08:32:21;;;;;;;21.27;9.70;;;7.70;99.90;;;;;;6249762;22;20027;-89
2022/03/15 08:34:48;;;;;;;25.23;11.05;;;7.70;99.90;;;;;;6224929;22;20078;-88
2022/03/15 08:37:16;;;;;;;20.70;10.02;;;7.80;99.90;;;;;;6277368;22;20019;-89
2022/03/15 08:39:43;;;;;;;31.65;12.50;;;7.90;99.90;;;;;;6249885;22;20019;-88
2022/03/15 08:42:10;;;;;;;22.58;10.57;;;7.90;99.90;;;;;;6249795;22;20097;-88
2022/03/15 08:44:38;;;;;;;26.52;12.23;;;7.90;99.90;;;;;;6250125;22;20375;-89
2022/03/15 08:47:08;;;;;;;31.50;14.05;;;8.00;99.90;;;;;;6251273;22;20039;-92
2022/03/15 08:49:38;;;;;;;30.65;14.40;;;8.10;99.90;;;;;;6225275;22;20020;-91
2022/03/15 08:52:33;;;;;;;28.52;14.27;;;8.20;99.90;;;;;;6252457;22;20073;-94
2022/03/15 08:55:00;;;;;;;24.75;13.70;;;8.20;99.90;;;;;;6251450;22;20069;-92
2022/03/15 08:57:30;;;;;;;28.55;13.90;;;8.20;99.90;;;;;;6226482;22;20077;-91
2022/03/15 08:59:58;;;;;;;31.95;13.45;;;8.20;99.90;;;;;;6251543;22;20099;-93
2022/03/15 09:02:25;;;;;;;30.38;15.13;;;8.30;99.90;;;;;;6277303;22;20016;-90
2022/03/15 09:04:52;;;;;;;38.83;17.15;;;8.30;99.90;;;;;;6250435;22;20015;-93
2022/03/15 09:07:20;;;;;;;36.70;16.52;;;8.40;99.90;;;;;;6277442;22;20024;-90
2022/03/15 09:09:48;;;;;;;30.70;14.85;;;8.40;99.90;;;;;;6277889;22;20348;-90
2022/03/15 09:12:16;;;;;;;33.03;15.90;;;8.40;99.90;;;;;;6250027;22;20498;-90
2022/03/15 09:14:43;;;;;;;36.60;16.92;;;8.40;99.90;;;;;;6250332;22;20016;-91
2022/03/15 09:17:11;;;;;;;32.05;15.45;;;8.50;99.90;;;;;;6250389;22;20024;-91
2022/03/15 09:19:40;;;;;;;46.33;20.00;;;8.50;99.90;;;;;;6277772;22;20020;-91
2022/03/15 09:22:08;;;;;;;30.75;16.67;;;8.50;99.90;;;;;;6250015;22;20020;-91
2022/03/15 09:24:36;;;;;;;31.42;17.63;;;8.60;99.90;;;;;;6277312;22;20431;-90
2022/03/15 09:27:04;;;;;;;28.63;15.07;;;8.60;99.90;;;;;;6225162;22;20020;-91
2022/03/15 09:29:32;;;;;;;32.45;16.70;;;8.70;99.90;;;;;;6250335;22;20051;-91
2022/03/15 09:31:58;;;;;;;35.17;17.63;;;8.70;99.90;;;;;;6225297;22;20039;-93
2022/03/15 09:34:27;;;;;;;39.97;17.67;;;8.70;99.90;;;;;;6250115;22;20380;-92
2022/03/15 09:36:54;;;;;;;32.45;17.55;;;8.70;99.90;;;;;;6225824;22;20047;-91
2022/03/15 09:39:21;;;;;;;33.60;16.42;;;8.80;99.90;;;;;;6225148;22;20027;-91
2022/03/15 09:41:54;;;;;;;36.50;19.50;;;8.80;99.90;;;;;;6250265;22;20091;-92
2022/03/15 09:44:28;;;;;;;41.50;18.55;;;8.80;99.90;;;;;;6224929;22;20443;-91
2022/03/15 09:46:57;;;;;;;;;;;8.80;99.90;;;;;;6226365;22;20066;-91
2022/03/15 09:49:26;;;;;;;33.05;16.00;;;8.80;99.90;;;;;;6251207;22;19915;-91
2022/03/15 09:51:56;;;;;;;33.25;17.17;;;8.90;99.90;;;;;;6249987;22;20020;-92
2022/03/15 09:54:27;;;;;;;30.70;17.95;;;8.90;99.90;;;;;;6280105;22;20026;-91
2022/03/15 09:56:55;;;;;;;40.15;17.58;;;8.90;99.90;;;;;;6253640;22;20027;-91
2022/03/15 09:59:26;;;;;;;33.47;17.23;;;8.90;99.90;;;;;;6280181;22;20442;-92
2022/03/15 10:01:56;;;;;;;38.40;18.85;;;8.90;99.90;;;;;;6253589;22;20026;-92
2022/03/15 10:04:25;;;;;;;39.90;16.42;;;8.90;99.90;;;;;;6203792;22;20023;-91
2022/03/15 10:06:53;;;;;;;45.83;21.88;;;8.90;99.90;;;;;;6253798;22;20343;-91
2022/03/15 10:09:27;;;;;;;35.78;20.52;;;9.00;99.90;;;;;;6253455;22;20098;-91
2022/03/15 10:11:55;;;;;;;26.77;16.40;;;9.10;99.90;;;;;;6253323;22;20126;-92
2022/03/15 10:14:23;;;;;;;39.25;19.08;;;8.90;99.90;;;;;;6228452;22;20047;-92
2022/03/15 10:16:50;;;;;;;39.33;18.33;;;9.00;99.90;;;;;;6253430;22;20465;-92
2022/03/15 10:19:18;;;;;;;43.25;20.40;;;9.10;99.90;;;;;;6254130;22;20343;-92
2022/03/15 10:21:51;;;;;;;32.10;16.30;;;9.10;99.90;;;;;;6253661;22;20059;-91
2022/03/15 10:24:22;;;;;;;29.38;17.73;;;9.10;99.90;;;;;;6254935;22;20027;-91
2022/03/15 10:26:52;;;;;;;34.38;18.58;;;9.10;99.90;;;;;;6253895;22;20332;-91
2022/03/15 10:29:20;;;;;;;39.97;20.27;;;9.10;99.90;;;;;;6253055;22;20047;-91
2022/03/15 10:31:48;;;;;;;36.60;19.52;;;9.10;99.90;;;;;;6253286;22;20011;-92
2022/03/15 10:34:17;;;;;;;39.33;20.10;;;9.10;99.90;;;;;;6280780;22;20027;-92
2022/03/15 10:36:46;;;;;;;42.70;19.23;;;9.10;99.90;;;;;;6253545;22;20383;-91
2022/03/15 10:39:16;;;;;;;32.35;17.42;;;9.10;99.90;;;;;;6253860;22;20015;-91
2022/03/15 10:41:45;;;;;;;40.83;19.20;;;9.10;99.90;;;;;;6227758;22;20019;-91
2022/03/15 10:44:30;;;;;;;32.95;19.20;;;9.10;99.90;;;;;;6253885;22;20022;-91
2022/03/15 10:47:11;;;;;;;35.70;18.27;;;9.10;99.90;;;;;;6253443;22;20125;-90
2022/03/15 10:49:54;;;;;;;34.00;18.10;;;9.10;99.90;;;;;;6253267;22;20102;-91
2022/03/15 10:52:35;;;;;;;31.73;19.02;;;9.20;99.90;;;;;;6253200;22;20023;-91
2022/03/15 10:55:26;;;;;;;42.60;19.38;;;9.20;99.90;;;;;;6228129;22;20020;-91
2022/03/15 10:57:59;;;;;;;35.33;21.00;;;9.20;99.90;;;;;;6253443;22;20047;-91
2022/03/15 11:00:32;;;;;;;31.65;18.15;;;9.10;99.90;;;;;;6253227;22;20093;-92
2022/03/15 11:03:00;;;;;;;;;;;9.10;99.90;;;;;;6253599;22;20023;-92
2022/03/15 11:05:35;;;;;;;33.42;17.92;;;9.10;99.90;;;;;;6278508;22;19962;-92
2022/03/15 11:08:13;;;;;;;38.47;20.25;;;9.10;99.90;;;;;;6252450;22;20023;-91
2022/03/15 11:10:45;;;;;;;40.47;18.17;;;9.00;99.90;;;;;;6251891;22;20447;-91
2022/03/15 11:13:12;;;;;;;39.30;19.75;;;9.00;99.90;;;;;;6227145;22;20020;-91
2022/03/15 11:15:48;;;;;;;34.78;16.27;;;9.00;99.90;;;;;;6226686;22;20094;-92
2022/03/15 11:18:17;;;;;;;41.35;17.83;;;8.90;99.90;;;;;;6251661;22;20047;-91
2022/03/15 11:20:47;;;;;;;37.00;19.67;;;9.00;99.90;;;;;;6251583;22;20051;-91
2022/03/15 11:23:19;;;;;;;39.50;18.50;;;9.00;99.90;;;;;;6251481;22;20027;-92
2022/03/15 11:26:09;;;;;;;38.47;17.88;;;9.00;99.90;;;;;;6226970;22;20028;-92
2022/03/15 11:28:36;;;;;;;34.13;17.55;;;9.00;99.90;;;;;;6226027;22;20074;-91
2022/03/15 11:31:04;;;;;;;42.30;19.25;;;9.00;99.90;;;;;;6226643;22;20027;-92
2022/03/15 11:33:31;;;;;;;38.00;18.80;;;9.00;99.90;;;;;;6251091;22;20023;-91
2022/03/15 11:36:03;;;;;;;34.38;18.75;;;9.00;99.90;;;;;;6252370;22;20070;-92
2022/03/15 11:38:31;;;;;;;35.15;18.83;;;9.10;99.90;;;;;;6251029;22;20465;-91
2022/03/15 11:40:58;;;;;;;40.80;19.67;;;9.10;99.90;;;;;;6226507;22;20046;-91
2022/03/15 11:43:33;;;;;;;35.55;19.15;;;9.20;99.90;;;;;;6251900;22;20053;-92
2022/03/15 11:46:18;;;;;;;33.40;18.20;;;9.20;99.90;;;;;;6226296;22;20340;-91
2022/03/15 11:49:15;;;;;;;35.90;16.55;;;9.20;99.90;;;;;;6251701;22;20026;-91
2022/03/15 11:52:17;;;;;;;33.20;14.20;;;9.10;99.90;;;;;;6192089;22;20413;-92
2022/03/15 11:54:52;;;;;;;28.05;14.13;;;9.10;99.90;;;;;;6251017;22;20016;-91
2022/03/15 11:57:34;;;;;;;37.80;15.35;;;9.10;99.90;;;;;;6251877;22;20024;-92
2022/03/15 12:00:01;;;;;;;29.42;13.38;;;9.10;99.90;;;;;;6225923;22;20354;-92
2022/03/15 12:02:38;;;;;;;27.60;12.88;;;9.10;99.90;;;;;;6251700;22;20016;-92
2022/03/15 12:05:17;;;;;;;28.92;13.88;;;9.10;99.90;;;;;;6251868;22;20012;-91
2022/03/15 12:08:16;;;;;;;21.77;11.73;;;9.10;99.90;;;;;;6251562;22;20090;-92
2022/03/15 12:11:01;;;;;;;23.13;11.73;;;9.10;99.90;;;;;;6251641;22;20012;-92
2022/03/15 12:13:43;;;;;;;19.33;11.10;;;9.10;99.90;;;;;;6277750;22;20020;-91
2022/03/15 12:16:25;;;;;;;25.25;12.23;;;9.10;99.90;;;;;;6250958;22;20020;-91
2022/03/15 12:19:10;;;;;;;25.85;11.32;;;9.10;99.90;;;;;;6251497;22;20023;-91
2022/03/15 12:21:53;;;;;;;24.20;11.32;;;9.20;99.90;;;;;;6251152;22;20024;-91
2022/03/15 12:24:36;;;;;;;22.40;11.23;;;9.20;99.90;;;;;;6251185;22;20474;-92
2022/03/15 12:27:09;;;;;;;28.88;11.02;;;9.20;99.90;;;;;;6227673;22;20435;-92
2022/03/15 12:29:36;;;;;;;22.37;9.77;;;9.20;99.90;;;;;;6225700;22;20391;-91
2022/03/15 12:32:18;;;;;;;22.83;10.10;;;9.20;99.90;;;;;;6225707;22;20034;-92
2022/03/15 12:34:49;;;;;;;16.60;9.85;;;9.30;99.90;;;;;;6227159;22;20481;-92
2022/03/15 12:37:31;;;;;;;22.52;9.32;;;9.40;99.90;;;;;;6251837;22;20020;-90
2022/03/15 12:40:02;;;;;;;16.17;9.02;;;9.30;99.90;;;;;;6250986;22;20020;-91
2022/03/15 12:42:31;;;;;;;21.80;10.07;;;9.50;99.90;;;;;;6251072;22;20024;-92
2022/03/15 12:45:04;;;;;;;18.10;8.93;;;9.50;99.90;;;;;;6277625;22;20085;-91
2022/03/15 12:47:32;;;;;;;25.23;10.40;;;9.60;99.90;;;;;;6251327;22;20074;-92
2022/03/15 12:50:09;;;;;;;26.95;12.30;;;9.60;99.90;;;;;;6250756;22;20043;-91
2022/03/15 12:53:03;;;;;;;29.52;13.60;;;9.60;99.90;;;;;;6250647;22;20030;-91
2022/03/15 12:55:35;;;;;;;32.05;13.07;;;9.80;99.90;;;;;;6225698;22;20035;-92
2022/03/15 12:58:06;;;;;;;26.88;13.90;;;9.90;99.90;;;;;;6226484;22;20023;-93
2022/03/15 13:00:39;;;;;;;29.95;14.73;;;9.90;99.90;;;;;;6225680;22;20015;-92
2022/03/15 13:03:09;;;;;;;25.42;13.30;;;10.00;99.90;;;;;;6250982;22;20087;-92
2022/03/15 13:05:41;;;;;;;27.13;11.55;;;10.00;99.90;;;;;;6225297;22;20019;-92
2022/03/15 13:08:11;;;;;;;22.95;11.88;;;10.00;99.90;;;;;;6252461;22;20359;-92
2022/03/15 13:10:44;;;;;;;26.23;11.88;;;10.10;99.90;;;;;;6253735;22;20431;-93